GJOHN KLAX-KSFO
Flight info
| Callsign | GJOHN |
|---|---|
| Flight time | 2h 49m |
| Altitude | 8500 |
| Route | LOS ANGELES SANTA MONICA PIER PACIFIC PALISADES MALIBU VPCSU VPSTC RZS TEMPLETON NACIMIENTO SAN LUCAS KING CITY SOLEDAD PRUNEDALE CANFIELD GILROY MORGAN HILL COYOTE CREEK GOLF COURSE LEXINGTON RESEVOIR SARATOGA ANZA KNOLL SLAC LINEAR ACCELERATOR CRYSTAL SPRINGS SAN FRANCISCO INTL |
| Aircraft | C182/L-VGDW/C |
Departure
| Time | 2026-04-23 09:39 |
|---|---|
| Airport | Los Angeles International Airport (KLAX) |
Arrival
| Time | 2026-04-23 12:28 |
|---|---|
| Airport | San Francisco International Airport (KSFO) |
| Time | Latitude | Longitude | Altitude | Speed | Heading |
|---|---|---|---|---|---|
| 2026-04-23 09:33 | 33.93379 | -118.39455 | 130 ft | 0 kts | 23° |
| 2026-04-23 09:33 | 33.93380 | -118.39455 | 130 ft | 0 kts | 23° |
| 2026-04-23 09:35 | 33.93383 | -118.39453 | 130 ft | 4 kts | 23° |
| 2026-04-23 09:35 | 33.93429 | -118.39409 | 130 ft | 11 kts | 53° |
| 2026-04-23 09:36 | 33.93489 | -118.39395 | 130 ft | 12 kts | 18° |
| 2026-04-23 09:36 | 33.93562 | -118.39381 | 130 ft | 11 kts | 0° |
| 2026-04-23 09:36 | 33.93619 | -118.39399 | 130 ft | 6 kts | 288° |
| 2026-04-23 09:36 | 33.93605 | -118.39559 | 130 ft | 46 kts | 264° |
| 2026-04-23 09:37 | 33.93540 | -118.40154 | 177 ft | 90 kts | 263° |
| 2026-04-23 09:37 | 33.93449 | -118.40949 | 355 ft | 100 kts | 264° |
| 2026-04-23 09:37 | 33.93385 | -118.41814 | 426 ft | 113 kts | 278° |
| 2026-04-23 09:37 | 33.93473 | -118.42713 | 410 ft | 103 kts | 272° |
| 2026-04-23 09:38 | 33.93381 | -118.43539 | 412 ft | 97 kts | 257° |
| 2026-04-23 09:38 | 33.93200 | -118.44227 | 428 ft | 93 kts | 251° |
| 2026-04-23 09:38 | 33.93170 | -118.44974 | 464 ft | 91 kts | 294° |
| 2026-04-23 09:38 | 33.93671 | -118.45379 | 493 ft | 90 kts | 352° |
| 2026-04-23 09:39 | 33.94290 | -118.45501 | 512 ft | 92 kts | 346° |
| 2026-04-23 09:39 | 33.94906 | -118.45747 | 516 ft | 95 kts | 339° |
| 2026-04-23 09:39 | 33.95527 | -118.46053 | 516 ft | 97 kts | 336° |
| 2026-04-23 09:39 | 33.96134 | -118.46372 | 738 ft | 98 kts | 335° |
| 2026-04-23 09:40 | 33.96781 | -118.46721 | 979 ft | 105 kts | 336° |
| 2026-04-23 09:40 | 33.97465 | -118.47091 | 1211 ft | 111 kts | 336° |
| 2026-04-23 09:40 | 33.98177 | -118.47477 | 1444 ft | 114 kts | 336° |
| 2026-04-23 09:40 | 33.98905 | -118.47872 | 1674 ft | 116 kts | 336° |
| 2026-04-23 09:41 | 33.99410 | -118.48147 | 1825 ft | 122 kts | 336° |
| 2026-04-23 09:41 | 34.00435 | -118.48705 | 2107 ft | 122 kts | 336° |
| 2026-04-23 09:41 | 34.01104 | -118.49305 | 2342 ft | 120 kts | 312° |
| 2026-04-23 09:41 | 34.01609 | -118.50096 | 2586 ft | 118 kts | 305° |
| 2026-04-23 09:42 | 34.02077 | -118.50919 | 2837 ft | 118 kts | 303° |
| 2026-04-23 09:42 | 34.02536 | -118.51744 | 3081 ft | 120 kts | 303° |
| 2026-04-23 09:42 | 34.03000 | -118.52581 | 3329 ft | 120 kts | 303° |
| 2026-04-23 09:42 | 34.03411 | -118.53451 | 3572 ft | 120 kts | 288° |
| 2026-04-23 09:43 | 34.03511 | -118.54104 | 3733 ft | 119 kts | 276° |
| 2026-04-23 09:43 | 34.03574 | -118.55399 | 4064 ft | 114 kts | 272° |
| 2026-04-23 09:43 | 34.03590 | -118.56024 | 4227 ft | 112 kts | 271° |
| 2026-04-23 09:43 | 34.03616 | -118.57256 | 4554 ft | 109 kts | 272° |
| 2026-04-23 09:44 | 34.03633 | -118.58158 | 4801 ft | 106 kts | 272° |
| 2026-04-23 09:44 | 34.03648 | -118.59037 | 5047 ft | 104 kts | 274° |
| 2026-04-23 09:44 | 34.03663 | -118.59893 | 5295 ft | 101 kts | 274° |
| 2026-04-23 09:44 | 34.03673 | -118.60458 | 5464 ft | 99 kts | 273° |
| 2026-04-23 09:45 | 34.03687 | -118.61271 | 5719 ft | 97 kts | 274° |
| 2026-04-23 09:45 | 34.03706 | -118.62365 | 6055 ft | 98 kts | 274° |
| 2026-04-23 09:45 | 34.03720 | -118.63180 | 6306 ft | 97 kts | 274° |
| 2026-04-23 09:45 | 34.03733 | -118.63989 | 6557 ft | 96 kts | 274° |
| 2026-04-23 09:46 | 34.03742 | -118.64523 | 6719 ft | 95 kts | 274° |
| 2026-04-23 09:46 | 34.03755 | -118.65296 | 6967 ft | 90 kts | 275° |
| 2026-04-23 09:46 | 34.03766 | -118.66022 | 7212 ft | 84 kts | 275° |
| 2026-04-23 09:46 | 34.03779 | -118.66730 | 7410 ft | 84 kts | 274° |
| 2026-04-23 09:47 | 34.03791 | -118.67442 | 7583 ft | 87 kts | 275° |
| 2026-04-23 09:47 | 34.03963 | -118.68398 | 7790 ft | 89 kts | 292° |
| 2026-04-23 09:47 | 34.04117 | -118.68871 | 7896 ft | 91 kts | 294° |
| 2026-04-23 09:47 | 34.04355 | -118.69580 | 8055 ft | 92 kts | 294° |
| 2026-04-23 09:48 | 34.04681 | -118.70531 | 8264 ft | 93 kts | 295° |
| 2026-04-23 09:48 | 34.04848 | -118.71016 | 8369 ft | 93 kts | 295° |
| 2026-04-23 09:48 | 34.05098 | -118.71740 | 8486 ft | 97 kts | 295° |
| 2026-04-23 09:48 | 34.05467 | -118.72805 | 8507 ft | 108 kts | 295° |
| 2026-04-23 09:49 | 34.05664 | -118.73375 | 8505 ft | 110 kts | 295° |
| 2026-04-23 09:49 | 34.05959 | -118.74229 | 8504 ft | 111 kts | 295° |
| 2026-04-23 09:49 | 34.06258 | -118.75094 | 8504 ft | 112 kts | 295° |
| 2026-04-23 09:49 | 34.06559 | -118.75967 | 8503 ft | 113 kts | 295° |
| 2026-04-23 09:50 | 34.06862 | -118.76845 | 8502 ft | 114 kts | 295° |
| 2026-04-23 09:50 | 34.07166 | -118.77726 | 8502 ft | 114 kts | 295° |
| 2026-04-23 09:50 | 34.07470 | -118.78609 | 8502 ft | 114 kts | 295° |
| 2026-04-23 09:50 | 34.07776 | -118.79495 | 8502 ft | 115 kts | 295° |
| 2026-04-23 09:51 | 34.08081 | -118.80381 | 8501 ft | 115 kts | 295° |
| 2026-04-23 09:51 | 34.08386 | -118.81267 | 8501 ft | 115 kts | 295° |
| 2026-04-23 09:51 | 34.08696 | -118.82167 | 8501 ft | 115 kts | 295° |
| 2026-04-23 09:51 | 34.09001 | -118.83054 | 8501 ft | 115 kts | 295° |
| 2026-04-23 09:52 | 34.09307 | -118.83942 | 8501 ft | 115 kts | 295° |
| 2026-04-23 09:52 | 34.09613 | -118.84831 | 8501 ft | 115 kts | 295° |
| 2026-04-23 09:52 | 34.09919 | -118.85719 | 8501 ft | 115 kts | 295° |
| 2026-04-23 09:52 | 34.10225 | -118.86609 | 8501 ft | 115 kts | 295° |
| 2026-04-23 09:53 | 34.10530 | -118.87497 | 8501 ft | 115 kts | 295° |
| 2026-04-23 09:53 | 34.10836 | -118.88388 | 8501 ft | 115 kts | 295° |
| 2026-04-23 09:53 | 34.11142 | -118.89276 | 8501 ft | 115 kts | 295° |
| 2026-04-23 09:53 | 34.11448 | -118.90167 | 8501 ft | 115 kts | 295° |
| 2026-04-23 09:54 | 34.11753 | -118.91056 | 8501 ft | 115 kts | 295° |
| 2026-04-23 09:54 | 34.12058 | -118.91945 | 8504 ft | 115 kts | 295° |
| 2026-04-23 09:54 | 34.12367 | -118.92845 | 8505 ft | 115 kts | 295° |
| 2026-04-23 09:54 | 34.12672 | -118.93733 | 8506 ft | 115 kts | 295° |
| 2026-04-23 09:55 | 34.12978 | -118.94623 | 8506 ft | 115 kts | 295° |
| 2026-04-23 09:55 | 34.13284 | -118.95515 | 8506 ft | 115 kts | 295° |
| 2026-04-23 09:55 | 34.13588 | -118.96404 | 8506 ft | 115 kts | 295° |
| 2026-04-23 09:55 | 34.13894 | -118.97296 | 8506 ft | 115 kts | 295° |
| 2026-04-23 09:56 | 34.14200 | -118.98186 | 8506 ft | 115 kts | 295° |
| 2026-04-23 09:56 | 34.14505 | -118.99079 | 8506 ft | 115 kts | 295° |
| 2026-04-23 09:56 | 34.14811 | -118.99970 | 8506 ft | 115 kts | 295° |
| 2026-04-23 09:56 | 34.15116 | -119.00862 | 8506 ft | 115 kts | 295° |
| 2026-04-23 09:57 | 34.15422 | -119.01754 | 8509 ft | 116 kts | 295° |
| 2026-04-23 09:57 | 34.15734 | -119.02663 | 8507 ft | 118 kts | 295° |
| 2026-04-23 09:57 | 34.16051 | -119.03587 | 8506 ft | 120 kts | 296° |
| 2026-04-23 09:57 | 34.16567 | -119.04377 | 8504 ft | 120 kts | 319° |
| 2026-04-23 09:58 | 34.17224 | -119.04997 | 8509 ft | 121 kts | 323° |
| 2026-04-23 09:58 | 34.17915 | -119.05601 | 8504 ft | 125 kts | 324° |
| 2026-04-23 09:58 | 34.18627 | -119.06212 | 8503 ft | 127 kts | 324° |
| 2026-04-23 09:58 | 34.19349 | -119.06827 | 8503 ft | 128 kts | 325° |
| 2026-04-23 09:59 | 34.20076 | -119.07444 | 8509 ft | 127 kts | 325° |
| 2026-04-23 09:59 | 34.20808 | -119.08064 | 8494 ft | 130 kts | 325° |
| 2026-04-23 09:59 | 34.21553 | -119.08696 | 8494 ft | 132 kts | 325° |
| 2026-04-23 09:59 | 34.22305 | -119.09332 | 8495 ft | 132 kts | 325° |
| 2026-04-23 10:00 | 34.23053 | -119.09966 | 8490 ft | 129 kts | 325° |
| 2026-04-23 10:00 | 34.23771 | -119.10574 | 8496 ft | 124 kts | 325° |
| 2026-04-23 10:00 | 34.24463 | -119.11160 | 8497 ft | 120 kts | 325° |
| 2026-04-23 10:00 | 34.25141 | -119.11735 | 8497 ft | 119 kts | 325° |
| 2026-04-23 10:01 | 34.25812 | -119.12304 | 8498 ft | 117 kts | 325° |
| 2026-04-23 10:01 | 34.26485 | -119.12874 | 8499 ft | 116 kts | 325° |
| 2026-04-23 10:01 | 34.27145 | -119.13433 | 8500 ft | 116 kts | 325° |
| 2026-04-23 10:01 | 34.27695 | -119.14130 | 8503 ft | 116 kts | 304° |
| 2026-04-23 10:02 | 34.28068 | -119.14990 | 8509 ft | 116 kts | 299° |
| 2026-04-23 10:02 | 34.28411 | -119.15867 | 8509 ft | 116 kts | 298° |
| 2026-04-23 10:02 | 34.28747 | -119.16750 | 8508 ft | 116 kts | 297° |
| 2026-04-23 10:02 | 34.29079 | -119.17634 | 8507 ft | 116 kts | 297° |
| 2026-04-23 10:03 | 34.29409 | -119.18520 | 8506 ft | 116 kts | 297° |
| 2026-04-23 10:03 | 34.29739 | -119.19406 | 8505 ft | 116 kts | 297° |
| 2026-04-23 10:03 | 34.30068 | -119.20293 | 8505 ft | 116 kts | 297° |
| 2026-04-23 10:03 | 34.30397 | -119.21181 | 8502 ft | 116 kts | 297° |
| 2026-04-23 10:04 | 34.30730 | -119.22075 | 8503 ft | 119 kts | 297° |
| 2026-04-23 10:04 | 34.31084 | -119.23031 | 8491 ft | 127 kts | 297° |
| 2026-04-23 10:04 | 34.31450 | -119.24020 | 8489 ft | 131 kts | 296° |
| 2026-04-23 10:04 | 34.31825 | -119.25035 | 8489 ft | 133 kts | 296° |
| 2026-04-23 10:05 | 34.32203 | -119.26056 | 8500 ft | 132 kts | 297° |
| 2026-04-23 10:05 | 34.32582 | -119.27082 | 8480 ft | 135 kts | 297° |
| 2026-04-23 10:05 | 34.32965 | -119.28119 | 8485 ft | 135 kts | 297° |
| 2026-04-23 10:05 | 34.33350 | -119.29160 | 8488 ft | 136 kts | 297° |
| 2026-04-23 10:06 | 34.33731 | -119.30191 | 8472 ft | 132 kts | 297° |
| 2026-04-23 10:06 | 34.34096 | -119.31182 | 8478 ft | 127 kts | 297° |
| 2026-04-23 10:06 | 34.34450 | -119.32141 | 8480 ft | 124 kts | 297° |
| 2026-04-23 10:06 | 34.34797 | -119.33081 | 8481 ft | 122 kts | 297° |
| 2026-04-23 10:07 | 34.35141 | -119.34011 | 8482 ft | 120 kts | 297° |
| 2026-04-23 10:07 | 34.35480 | -119.34928 | 8484 ft | 119 kts | 297° |
| 2026-04-23 10:07 | 34.35817 | -119.35839 | 8485 ft | 118 kts | 297° |
| 2026-04-23 10:07 | 34.36155 | -119.36754 | 8487 ft | 118 kts | 297° |
| 2026-04-23 10:08 | 34.36488 | -119.37656 | 8488 ft | 117 kts | 297° |
| 2026-04-23 10:08 | 34.36819 | -119.38556 | 8488 ft | 117 kts | 297° |
| 2026-04-23 10:08 | 34.37151 | -119.39454 | 8488 ft | 117 kts | 297° |
| 2026-04-23 10:09 | 34.37813 | -119.41251 | 8489 ft | 117 kts | 297° |
| 2026-04-23 10:09 | 34.38144 | -119.42150 | 8489 ft | 117 kts | 297° |
| 2026-04-23 10:09 | 34.38474 | -119.43047 | 8490 ft | 117 kts | 297° |
| 2026-04-23 10:09 | 34.38803 | -119.43941 | 8490 ft | 117 kts | 297° |
| 2026-04-23 10:10 | 34.39133 | -119.44837 | 8489 ft | 116 kts | 297° |
| 2026-04-23 10:10 | 34.39462 | -119.45731 | 8489 ft | 116 kts | 297° |
| 2026-04-23 10:10 | 34.39790 | -119.46624 | 8490 ft | 116 kts | 297° |
| 2026-04-23 10:10 | 34.40119 | -119.47518 | 8489 ft | 116 kts | 297° |
| 2026-04-23 10:11 | 34.40452 | -119.48423 | 8489 ft | 116 kts | 297° |
| 2026-04-23 10:11 | 34.40781 | -119.49319 | 8489 ft | 116 kts | 297° |
| 2026-04-23 10:11 | 34.41109 | -119.50211 | 8489 ft | 116 kts | 297° |
| 2026-04-23 10:11 | 34.41437 | -119.51105 | 8489 ft | 116 kts | 297° |
| 2026-04-23 10:12 | 34.41766 | -119.52000 | 8489 ft | 116 kts | 297° |
| 2026-04-23 10:12 | 34.42094 | -119.52894 | 8489 ft | 116 kts | 297° |
| 2026-04-23 10:12 | 34.42423 | -119.53790 | 8489 ft | 116 kts | 297° |
| 2026-04-23 10:12 | 34.42751 | -119.54685 | 8489 ft | 116 kts | 297° |
| 2026-04-23 10:13 | 34.43079 | -119.55579 | 8488 ft | 117 kts | 297° |
| 2026-04-23 10:13 | 34.43407 | -119.56474 | 8489 ft | 116 kts | 297° |
| 2026-04-23 10:13 | 34.43734 | -119.57368 | 8493 ft | 116 kts | 297° |
| 2026-04-23 10:13 | 34.44062 | -119.58261 | 8494 ft | 116 kts | 297° |
| 2026-04-23 10:14 | 34.44390 | -119.59156 | 8494 ft | 116 kts | 297° |
| 2026-04-23 10:14 | 34.44722 | -119.60062 | 8494 ft | 116 kts | 297° |
| 2026-04-23 10:14 | 34.45050 | -119.60957 | 8494 ft | 116 kts | 297° |
| 2026-04-23 10:14 | 34.45378 | -119.61853 | 8494 ft | 117 kts | 297° |
| 2026-04-23 10:15 | 34.45706 | -119.62751 | 8494 ft | 117 kts | 297° |
| 2026-04-23 10:15 | 34.46034 | -119.63648 | 8493 ft | 117 kts | 297° |
| 2026-04-23 10:15 | 34.46362 | -119.64545 | 8493 ft | 117 kts | 297° |
| 2026-04-23 10:15 | 34.46690 | -119.65442 | 8493 ft | 117 kts | 297° |
| 2026-04-23 10:16 | 34.47019 | -119.66341 | 8492 ft | 117 kts | 297° |
| 2026-04-23 10:16 | 34.47347 | -119.67239 | 8492 ft | 117 kts | 298° |
| 2026-04-23 10:16 | 34.47675 | -119.68137 | 8492 ft | 117 kts | 297° |
| 2026-04-23 10:16 | 34.48004 | -119.69036 | 8492 ft | 117 kts | 297° |
| 2026-04-23 10:17 | 34.48332 | -119.69933 | 8491 ft | 117 kts | 297° |
| 2026-04-23 10:17 | 34.48665 | -119.70846 | 8491 ft | 117 kts | 297° |
| 2026-04-23 10:17 | 34.48994 | -119.71747 | 8491 ft | 117 kts | 297° |
| 2026-04-23 10:17 | 34.49323 | -119.72649 | 8491 ft | 117 kts | 297° |
| 2026-04-23 10:18 | 34.49653 | -119.73553 | 8490 ft | 117 kts | 297° |
| 2026-04-23 10:18 | 34.49984 | -119.74459 | 8490 ft | 118 kts | 297° |
| 2026-04-23 10:18 | 34.50314 | -119.75362 | 8490 ft | 118 kts | 297° |
| 2026-04-23 10:18 | 34.50645 | -119.76267 | 8490 ft | 118 kts | 297° |
| 2026-04-23 10:19 | 34.51088 | -119.77079 | 8492 ft | 115 kts | 317° |
| 2026-04-23 10:19 | 34.51694 | -119.77712 | 8495 ft | 115 kts | 323° |
| 2026-04-23 10:19 | 34.52323 | -119.78309 | 8495 ft | 115 kts | 324° |
| 2026-04-23 10:19 | 34.52960 | -119.78895 | 8495 ft | 115 kts | 324° |
| 2026-04-23 10:20 | 34.53601 | -119.79478 | 8495 ft | 115 kts | 324° |
| 2026-04-23 10:20 | 34.54243 | -119.80057 | 8495 ft | 115 kts | 325° |
| 2026-04-23 10:20 | 34.54894 | -119.80644 | 8496 ft | 115 kts | 325° |
| 2026-04-23 10:20 | 34.55538 | -119.81223 | 8496 ft | 115 kts | 325° |
| 2026-04-23 10:21 | 34.56182 | -119.81800 | 8497 ft | 115 kts | 325° |
| 2026-04-23 10:21 | 34.56825 | -119.82378 | 8498 ft | 115 kts | 325° |
| 2026-04-23 10:21 | 34.57467 | -119.82955 | 8499 ft | 115 kts | 325° |
| 2026-04-23 10:21 | 34.58111 | -119.83533 | 8501 ft | 115 kts | 325° |
| 2026-04-23 10:22 | 34.58754 | -119.84110 | 8502 ft | 115 kts | 325° |
| 2026-04-23 10:22 | 34.59398 | -119.84688 | 8504 ft | 115 kts | 325° |
| 2026-04-23 10:22 | 34.60040 | -119.85266 | 8505 ft | 115 kts | 325° |
| 2026-04-23 10:22 | 34.60682 | -119.85843 | 8509 ft | 115 kts | 325° |
| 2026-04-23 10:23 | 34.61324 | -119.86419 | 8511 ft | 115 kts | 325° |
| 2026-04-23 10:23 | 34.61966 | -119.86997 | 8513 ft | 115 kts | 325° |
| 2026-04-23 10:23 | 34.62608 | -119.87574 | 8515 ft | 115 kts | 325° |
| 2026-04-23 10:23 | 34.63259 | -119.88159 | 8516 ft | 115 kts | 325° |
| 2026-04-23 10:24 | 34.63894 | -119.88730 | 8517 ft | 115 kts | 325° |
| 2026-04-23 10:24 | 34.64544 | -119.89316 | 8518 ft | 115 kts | 325° |
| 2026-04-23 10:24 | 34.65188 | -119.89895 | 8520 ft | 115 kts | 325° |
| 2026-04-23 10:24 | 34.65831 | -119.90473 | 8521 ft | 115 kts | 325° |
| 2026-04-23 10:25 | 34.66474 | -119.91053 | 8522 ft | 115 kts | 325° |
| 2026-04-23 10:25 | 34.67117 | -119.91632 | 8523 ft | 115 kts | 325° |
| 2026-04-23 10:25 | 34.67761 | -119.92211 | 8523 ft | 115 kts | 325° |
| 2026-04-23 10:25 | 34.68404 | -119.92791 | 8524 ft | 115 kts | 325° |
| 2026-04-23 10:26 | 34.69048 | -119.93371 | 8525 ft | 115 kts | 325° |
| 2026-04-23 10:26 | 34.69692 | -119.93951 | 8525 ft | 115 kts | 325° |
| 2026-04-23 10:26 | 34.70337 | -119.94532 | 8525 ft | 115 kts | 325° |
| 2026-04-23 10:26 | 34.70980 | -119.95113 | 8526 ft | 115 kts | 325° |
| 2026-04-23 10:27 | 34.71625 | -119.95693 | 8526 ft | 116 kts | 325° |
| 2026-04-23 10:27 | 34.72278 | -119.96283 | 8527 ft | 116 kts | 325° |
| 2026-04-23 10:27 | 34.72922 | -119.96863 | 8527 ft | 116 kts | 325° |
| 2026-04-23 10:27 | 34.73567 | -119.97445 | 8527 ft | 116 kts | 325° |
| 2026-04-23 10:28 | 34.74211 | -119.98026 | 8528 ft | 116 kts | 325° |
| 2026-04-23 10:28 | 34.74855 | -119.98608 | 8528 ft | 116 kts | 325° |
| 2026-04-23 10:28 | 34.75500 | -119.99190 | 8528 ft | 116 kts | 325° |
| 2026-04-23 10:28 | 34.76145 | -119.99772 | 8529 ft | 116 kts | 325° |
| 2026-04-23 10:29 | 34.76788 | -120.00353 | 8530 ft | 115 kts | 324° |
| 2026-04-23 10:29 | 34.77425 | -120.00928 | 8531 ft | 114 kts | 324° |
| 2026-04-23 10:29 | 34.78056 | -120.01498 | 8531 ft | 113 kts | 324° |
| 2026-04-23 10:29 | 34.78682 | -120.02063 | 8531 ft | 112 kts | 324° |
| 2026-04-23 10:30 | 34.79307 | -120.02629 | 8531 ft | 112 kts | 324° |
| 2026-04-23 10:30 | 34.79930 | -120.03192 | 8531 ft | 112 kts | 324° |
| 2026-04-23 10:30 | 34.80561 | -120.03762 | 8532 ft | 112 kts | 324° |
| 2026-04-23 10:30 | 34.81182 | -120.04323 | 8532 ft | 111 kts | 324° |
| 2026-04-23 10:31 | 34.81803 | -120.04885 | 8533 ft | 111 kts | 324° |
| 2026-04-23 10:31 | 34.82424 | -120.05446 | 8533 ft | 111 kts | 324° |
| 2026-04-23 10:31 | 34.83044 | -120.06008 | 8534 ft | 111 kts | 324° |
| 2026-04-23 10:31 | 34.83664 | -120.06569 | 8534 ft | 111 kts | 324° |
| 2026-04-23 10:32 | 34.84284 | -120.07130 | 8541 ft | 111 kts | 324° |
| 2026-04-23 10:32 | 34.84900 | -120.07688 | 8547 ft | 111 kts | 324° |
| 2026-04-23 10:32 | 34.85516 | -120.08246 | 8548 ft | 111 kts | 324° |
| 2026-04-23 10:32 | 34.86135 | -120.08806 | 8549 ft | 111 kts | 324° |
| 2026-04-23 10:33 | 34.86753 | -120.09365 | 8550 ft | 111 kts | 324° |
| 2026-04-23 10:33 | 34.87374 | -120.09928 | 8551 ft | 112 kts | 324° |
| 2026-04-23 10:33 | 34.88004 | -120.10500 | 8551 ft | 112 kts | 324° |
| 2026-04-23 10:33 | 34.88628 | -120.11064 | 8552 ft | 112 kts | 324° |
| 2026-04-23 10:34 | 34.89252 | -120.11630 | 8552 ft | 112 kts | 324° |
| 2026-04-23 10:34 | 34.89876 | -120.12197 | 8553 ft | 112 kts | 324° |
| 2026-04-23 10:34 | 34.90501 | -120.12763 | 8553 ft | 112 kts | 324° |
| 2026-04-23 10:34 | 34.91126 | -120.13330 | 8553 ft | 112 kts | 324° |
| 2026-04-23 10:35 | 34.91752 | -120.13898 | 8553 ft | 112 kts | 324° |
| 2026-04-23 10:35 | 34.92377 | -120.14466 | 8554 ft | 112 kts | 324° |
| 2026-04-23 10:35 | 34.93003 | -120.15033 | 8554 ft | 112 kts | 324° |
| 2026-04-23 10:35 | 34.93629 | -120.15602 | 8554 ft | 112 kts | 324° |
| 2026-04-23 10:36 | 34.94255 | -120.16170 | 8555 ft | 112 kts | 324° |
| 2026-04-23 10:36 | 34.94881 | -120.16739 | 8555 ft | 112 kts | 324° |
| 2026-04-23 10:36 | 34.95507 | -120.17308 | 8555 ft | 112 kts | 324° |
| 2026-04-23 10:36 | 34.96141 | -120.17884 | 8556 ft | 112 kts | 324° |
| 2026-04-23 10:37 | 34.96768 | -120.18453 | 8556 ft | 112 kts | 324° |
| 2026-04-23 10:37 | 34.97395 | -120.19023 | 8557 ft | 113 kts | 324° |
| 2026-04-23 10:37 | 34.98023 | -120.19594 | 8557 ft | 113 kts | 324° |
| 2026-04-23 10:37 | 34.98651 | -120.20165 | 8557 ft | 113 kts | 324° |
| 2026-04-23 10:38 | 34.99282 | -120.20739 | 8557 ft | 113 kts | 324° |
| 2026-04-23 10:38 | 34.99913 | -120.21313 | 8558 ft | 113 kts | 324° |
| 2026-04-23 10:38 | 35.00544 | -120.21887 | 8558 ft | 113 kts | 324° |
| 2026-04-23 10:38 | 35.01176 | -120.22462 | 8558 ft | 113 kts | 324° |
| 2026-04-23 10:39 | 35.01594 | -120.22842 | 8558 ft | 114 kts | 324° |
| 2026-04-23 10:39 | 35.02439 | -120.23612 | 8558 ft | 114 kts | 324° |
| 2026-04-23 10:39 | 35.03071 | -120.24187 | 8559 ft | 114 kts | 324° |
| 2026-04-23 10:39 | 35.03704 | -120.24763 | 8559 ft | 114 kts | 324° |
| 2026-04-23 10:40 | 35.04335 | -120.25339 | 8559 ft | 114 kts | 324° |
| 2026-04-23 10:40 | 35.04976 | -120.25923 | 8559 ft | 114 kts | 324° |
| 2026-04-23 10:40 | 35.05608 | -120.26498 | 8559 ft | 114 kts | 324° |
| 2026-04-23 10:40 | 35.06240 | -120.27075 | 8559 ft | 114 kts | 324° |
| 2026-04-23 10:41 | 35.06873 | -120.27651 | 8559 ft | 114 kts | 324° |
| 2026-04-23 10:41 | 35.07506 | -120.28228 | 8559 ft | 114 kts | 324° |
| 2026-04-23 10:41 | 35.07924 | -120.28610 | 8560 ft | 114 kts | 325° |
| 2026-04-23 10:41 | 35.08771 | -120.29383 | 8559 ft | 114 kts | 324° |
| 2026-04-23 10:42 | 35.09404 | -120.29960 | 8560 ft | 114 kts | 324° |
| 2026-04-23 10:42 | 35.10040 | -120.30540 | 8560 ft | 114 kts | 324° |
| 2026-04-23 10:42 | 35.10677 | -120.31121 | 8560 ft | 114 kts | 324° |
| 2026-04-23 10:42 | 35.11314 | -120.31703 | 8560 ft | 115 kts | 324° |
| 2026-04-23 10:43 | 35.11950 | -120.32284 | 8560 ft | 115 kts | 325° |
| 2026-04-23 10:43 | 35.12381 | -120.32678 | 8560 ft | 115 kts | 325° |
| 2026-04-23 10:43 | 35.13019 | -120.33260 | 8560 ft | 115 kts | 325° |
| 2026-04-23 10:43 | 35.13657 | -120.33843 | 8561 ft | 115 kts | 325° |
| 2026-04-23 10:44 | 35.14296 | -120.34427 | 8561 ft | 115 kts | 325° |
| 2026-04-23 10:44 | 35.14934 | -120.35010 | 8561 ft | 115 kts | 325° |
| 2026-04-23 10:44 | 35.15573 | -120.35594 | 8561 ft | 115 kts | 325° |
| 2026-04-23 10:44 | 35.16210 | -120.36176 | 8561 ft | 115 kts | 325° |
| 2026-04-23 10:45 | 35.16849 | -120.36761 | 8561 ft | 115 kts | 325° |
| 2026-04-23 10:45 | 35.17488 | -120.37345 | 8561 ft | 115 kts | 325° |
| 2026-04-23 10:45 | 35.18126 | -120.37929 | 8561 ft | 115 kts | 325° |
| 2026-04-23 10:45 | 35.18773 | -120.38521 | 8561 ft | 115 kts | 325° |
| 2026-04-23 10:46 | 35.19411 | -120.39105 | 8561 ft | 115 kts | 325° |
| 2026-04-23 10:46 | 35.20051 | -120.39690 | 8561 ft | 115 kts | 325° |
| 2026-04-23 10:46 | 35.20689 | -120.40275 | 8561 ft | 115 kts | 325° |
| 2026-04-23 10:46 | 35.21328 | -120.40860 | 8561 ft | 115 kts | 325° |
| 2026-04-23 10:47 | 35.21967 | -120.41445 | 8561 ft | 115 kts | 325° |
| 2026-04-23 10:47 | 35.22606 | -120.42031 | 8561 ft | 115 kts | 325° |
| 2026-04-23 10:47 | 35.23245 | -120.42616 | 8561 ft | 115 kts | 325° |
| 2026-04-23 10:47 | 35.23883 | -120.43200 | 8565 ft | 115 kts | 325° |
| 2026-04-23 10:48 | 35.24520 | -120.43784 | 8567 ft | 115 kts | 325° |
| 2026-04-23 10:48 | 35.25161 | -120.44372 | 8567 ft | 115 kts | 325° |
| 2026-04-23 10:48 | 35.25802 | -120.44960 | 8567 ft | 115 kts | 325° |
| 2026-04-23 10:48 | 35.26444 | -120.45549 | 8568 ft | 116 kts | 325° |
| 2026-04-23 10:49 | 35.27096 | -120.46147 | 8568 ft | 116 kts | 325° |
| 2026-04-23 10:49 | 35.27739 | -120.46737 | 8568 ft | 116 kts | 325° |
| 2026-04-23 10:49 | 35.28383 | -120.47328 | 8569 ft | 116 kts | 325° |
| 2026-04-23 10:49 | 35.29026 | -120.47918 | 8569 ft | 116 kts | 325° |
| 2026-04-23 10:50 | 35.29671 | -120.48511 | 8569 ft | 116 kts | 325° |
| 2026-04-23 10:50 | 35.30316 | -120.49103 | 8569 ft | 116 kts | 325° |
| 2026-04-23 10:50 | 35.30960 | -120.49694 | 8569 ft | 116 kts | 325° |
| 2026-04-23 10:50 | 35.31604 | -120.50286 | 8569 ft | 116 kts | 325° |
| 2026-04-23 10:51 | 35.32249 | -120.50878 | 8569 ft | 116 kts | 325° |
| 2026-04-23 10:51 | 35.32893 | -120.51471 | 8569 ft | 116 kts | 325° |
| 2026-04-23 10:51 | 35.33538 | -120.52063 | 8570 ft | 116 kts | 325° |
| 2026-04-23 10:51 | 35.34183 | -120.52656 | 8570 ft | 116 kts | 325° |
| 2026-04-23 10:52 | 35.34827 | -120.53248 | 8571 ft | 116 kts | 325° |
| 2026-04-23 10:52 | 35.35480 | -120.53849 | 8571 ft | 116 kts | 325° |
| 2026-04-23 10:52 | 35.36124 | -120.54441 | 8572 ft | 116 kts | 325° |
| 2026-04-23 10:52 | 35.36768 | -120.55034 | 8573 ft | 116 kts | 325° |
| 2026-04-23 10:53 | 35.37413 | -120.55627 | 8574 ft | 116 kts | 325° |
| 2026-04-23 10:53 | 35.38056 | -120.56220 | 8575 ft | 116 kts | 325° |
| 2026-04-23 10:53 | 35.38700 | -120.56813 | 8576 ft | 116 kts | 325° |
| 2026-04-23 10:53 | 35.39345 | -120.57406 | 8577 ft | 116 kts | 325° |
| 2026-04-23 10:54 | 35.39988 | -120.57999 | 8578 ft | 116 kts | 325° |
| 2026-04-23 10:54 | 35.40632 | -120.58592 | 8579 ft | 116 kts | 325° |
| 2026-04-23 10:54 | 35.41276 | -120.59185 | 8580 ft | 116 kts | 325° |
| 2026-04-23 10:54 | 35.41920 | -120.59779 | 8581 ft | 116 kts | 325° |
| 2026-04-23 10:55 | 35.42564 | -120.60372 | 8583 ft | 116 kts | 325° |
| 2026-04-23 10:55 | 35.43207 | -120.60965 | 8584 ft | 116 kts | 325° |
| 2026-04-23 10:55 | 35.43860 | -120.61567 | 8586 ft | 116 kts | 325° |
| 2026-04-23 10:55 | 35.44503 | -120.62160 | 8587 ft | 116 kts | 325° |
| 2026-04-23 10:56 | 35.45146 | -120.62753 | 8589 ft | 116 kts | 325° |
| 2026-04-23 10:56 | 35.45789 | -120.63347 | 8591 ft | 116 kts | 325° |
| 2026-04-23 10:56 | 35.46432 | -120.63940 | 8594 ft | 116 kts | 325° |
| 2026-04-23 10:56 | 35.47075 | -120.64533 | 8597 ft | 116 kts | 325° |
| 2026-04-23 10:57 | 35.47718 | -120.65126 | 8598 ft | 116 kts | 325° |
| 2026-04-23 10:57 | 35.48361 | -120.65720 | 8600 ft | 116 kts | 325° |
| 2026-04-23 10:57 | 35.49003 | -120.66313 | 8602 ft | 116 kts | 325° |
| 2026-04-23 10:57 | 35.49647 | -120.66908 | 8603 ft | 116 kts | 325° |
| 2026-04-23 10:58 | 35.50291 | -120.67502 | 8604 ft | 116 kts | 325° |
| 2026-04-23 10:58 | 35.50936 | -120.68098 | 8606 ft | 116 kts | 325° |
| 2026-04-23 10:58 | 35.51592 | -120.68704 | 8607 ft | 117 kts | 325° |
| 2026-04-23 10:58 | 35.52240 | -120.69302 | 8609 ft | 117 kts | 325° |
| 2026-04-23 10:59 | 35.52888 | -120.69900 | 8610 ft | 117 kts | 325° |
| 2026-04-23 10:59 | 35.53537 | -120.70498 | 8611 ft | 117 kts | 325° |
| 2026-04-23 10:59 | 35.54187 | -120.71096 | 8612 ft | 117 kts | 325° |
| 2026-04-23 10:59 | 35.54865 | -120.71634 | 8610 ft | 116 kts | 339° |
| 2026-04-23 11:00 | 35.55648 | -120.71873 | 8613 ft | 116 kts | 349° |
| 2026-04-23 11:00 | 35.56447 | -120.72029 | 8615 ft | 116 kts | 351° |
| 2026-04-23 11:00 | 35.57247 | -120.72166 | 8616 ft | 116 kts | 352° |
| 2026-04-23 11:00 | 35.58049 | -120.72295 | 8616 ft | 116 kts | 352° |
| 2026-04-23 11:01 | 35.58852 | -120.72421 | 8617 ft | 116 kts | 352° |
| 2026-04-23 11:01 | 35.59655 | -120.72545 | 8618 ft | 117 kts | 352° |
| 2026-04-23 11:01 | 35.60458 | -120.72668 | 8618 ft | 117 kts | 352° |
| 2026-04-23 11:01 | 35.61261 | -120.72791 | 8619 ft | 117 kts | 352° |
| 2026-04-23 11:02 | 35.62076 | -120.72916 | 8619 ft | 117 kts | 352° |
| 2026-04-23 11:02 | 35.62880 | -120.73039 | 8619 ft | 117 kts | 352° |
| 2026-04-23 11:02 | 35.63683 | -120.73162 | 8620 ft | 117 kts | 352° |
| 2026-04-23 11:02 | 35.64488 | -120.73285 | 8620 ft | 117 kts | 352° |
| 2026-04-23 11:03 | 35.65292 | -120.73408 | 8620 ft | 117 kts | 353° |
| 2026-04-23 11:03 | 35.66095 | -120.73531 | 8620 ft | 117 kts | 353° |
| 2026-04-23 11:03 | 35.66898 | -120.73653 | 8626 ft | 116 kts | 353° |
| 2026-04-23 11:03 | 35.67699 | -120.73776 | 8630 ft | 116 kts | 353° |
| 2026-04-23 11:04 | 35.68501 | -120.73898 | 8632 ft | 116 kts | 353° |
| 2026-04-23 11:04 | 35.69302 | -120.74021 | 8631 ft | 116 kts | 353° |
| 2026-04-23 11:04 | 35.70105 | -120.74143 | 8631 ft | 117 kts | 353° |
| 2026-04-23 11:04 | 35.70909 | -120.74266 | 8632 ft | 117 kts | 353° |
| 2026-04-23 11:05 | 35.71724 | -120.74391 | 8632 ft | 117 kts | 353° |
| 2026-04-23 11:05 | 35.72525 | -120.74513 | 8632 ft | 117 kts | 353° |
| 2026-04-23 11:05 | 35.73331 | -120.74637 | 8632 ft | 117 kts | 353° |
| 2026-04-23 11:05 | 35.74134 | -120.74759 | 8632 ft | 117 kts | 353° |
| 2026-04-23 11:06 | 35.75745 | -120.75005 | 8631 ft | 117 kts | 353° |
| 2026-04-23 11:06 | 35.76548 | -120.75127 | 8631 ft | 117 kts | 353° |
| 2026-04-23 11:06 | 35.77353 | -120.75250 | 8631 ft | 117 kts | 353° |
| 2026-04-23 11:07 | 35.78158 | -120.75371 | 8631 ft | 117 kts | 353° |
| 2026-04-23 11:07 | 35.78963 | -120.75492 | 8631 ft | 117 kts | 353° |
| 2026-04-23 11:07 | 35.79763 | -120.75650 | 8628 ft | 117 kts | 343° |
| 2026-04-23 11:07 | 35.80492 | -120.76088 | 8629 ft | 117 kts | 332° |
| 2026-04-23 11:08 | 35.81190 | -120.76602 | 8630 ft | 117 kts | 330° |
| 2026-04-23 11:08 | 35.81891 | -120.77135 | 8630 ft | 117 kts | 329° |
| 2026-04-23 11:08 | 35.82580 | -120.77668 | 8629 ft | 117 kts | 329° |
| 2026-04-23 11:08 | 35.83270 | -120.78203 | 8629 ft | 117 kts | 329° |
| 2026-04-23 11:09 | 35.83958 | -120.78739 | 8629 ft | 117 kts | 329° |
| 2026-04-23 11:09 | 35.84646 | -120.79275 | 8629 ft | 117 kts | 329° |
| 2026-04-23 11:09 | 35.85334 | -120.79813 | 8628 ft | 117 kts | 329° |
| 2026-04-23 11:09 | 35.86022 | -120.80350 | 8628 ft | 117 kts | 329° |
| 2026-04-23 11:10 | 35.86710 | -120.80887 | 8627 ft | 117 kts | 329° |
| 2026-04-23 11:10 | 35.87398 | -120.81425 | 8627 ft | 117 kts | 329° |
| 2026-04-23 11:10 | 35.88086 | -120.81963 | 8627 ft | 117 kts | 329° |
| 2026-04-23 11:10 | 35.88773 | -120.82500 | 8626 ft | 117 kts | 329° |
| 2026-04-23 11:11 | 35.89461 | -120.83038 | 8626 ft | 117 kts | 329° |
| 2026-04-23 11:11 | 35.90149 | -120.83576 | 8626 ft | 117 kts | 329° |
| 2026-04-23 11:11 | 35.90847 | -120.84121 | 8625 ft | 117 kts | 329° |
| 2026-04-23 11:11 | 35.91535 | -120.84660 | 8625 ft | 117 kts | 329° |
| 2026-04-23 11:12 | 35.92223 | -120.85198 | 8625 ft | 117 kts | 329° |
| 2026-04-23 11:12 | 35.92910 | -120.85736 | 8624 ft | 117 kts | 329° |
| 2026-04-23 11:12 | 35.93598 | -120.86274 | 8624 ft | 117 kts | 329° |
| 2026-04-23 11:12 | 35.94287 | -120.86813 | 8623 ft | 117 kts | 329° |
| 2026-04-23 11:13 | 35.94975 | -120.87352 | 8623 ft | 117 kts | 329° |
| 2026-04-23 11:13 | 35.95664 | -120.87891 | 8623 ft | 117 kts | 329° |
| 2026-04-23 11:13 | 35.96351 | -120.88429 | 8622 ft | 117 kts | 329° |
| 2026-04-23 11:13 | 35.97039 | -120.88967 | 8622 ft | 117 kts | 329° |
| 2026-04-23 11:14 | 35.97728 | -120.89506 | 8622 ft | 117 kts | 329° |
| 2026-04-23 11:14 | 35.98416 | -120.90045 | 8621 ft | 117 kts | 329° |
| 2026-04-23 11:14 | 35.99105 | -120.90583 | 8621 ft | 117 kts | 329° |
| 2026-04-23 11:14 | 35.99804 | -120.91129 | 8620 ft | 118 kts | 329° |
| 2026-04-23 11:15 | 36.00497 | -120.91669 | 8620 ft | 118 kts | 330° |
| 2026-04-23 11:15 | 36.01187 | -120.92217 | 8620 ft | 118 kts | 328° |
| 2026-04-23 11:15 | 36.01866 | -120.92789 | 8620 ft | 119 kts | 328° |
| 2026-04-23 11:15 | 36.02546 | -120.93364 | 8619 ft | 119 kts | 328° |
| 2026-04-23 11:16 | 36.03225 | -120.93939 | 8619 ft | 119 kts | 328° |
| 2026-04-23 11:16 | 36.03905 | -120.94515 | 8619 ft | 119 kts | 328° |
| 2026-04-23 11:16 | 36.04585 | -120.95091 | 8618 ft | 119 kts | 328° |
| 2026-04-23 11:16 | 36.05266 | -120.95667 | 8618 ft | 119 kts | 328° |
| 2026-04-23 11:17 | 36.05947 | -120.96243 | 8618 ft | 119 kts | 328° |
| 2026-04-23 11:17 | 36.06629 | -120.96819 | 8617 ft | 119 kts | 328° |
| 2026-04-23 11:17 | 36.07310 | -120.97395 | 8617 ft | 119 kts | 328° |
| 2026-04-23 11:17 | 36.07990 | -120.97971 | 8617 ft | 119 kts | 328° |
| 2026-04-23 11:18 | 36.08672 | -120.98547 | 8617 ft | 119 kts | 328° |
| 2026-04-23 11:18 | 36.09363 | -120.99132 | 8616 ft | 119 kts | 328° |
| 2026-04-23 11:18 | 36.10043 | -120.99707 | 8616 ft | 119 kts | 328° |
| 2026-04-23 11:18 | 36.10725 | -121.00283 | 8616 ft | 119 kts | 328° |
| 2026-04-23 11:19 | 36.11408 | -121.00857 | 8615 ft | 119 kts | 328° |
| 2026-04-23 11:19 | 36.12088 | -121.01437 | 8615 ft | 119 kts | 326° |
| 2026-04-23 11:19 | 36.12738 | -121.02068 | 8615 ft | 119 kts | 323° |
| 2026-04-23 11:19 | 36.13381 | -121.02712 | 8615 ft | 119 kts | 323° |
| 2026-04-23 11:20 | 36.14024 | -121.03359 | 8615 ft | 119 kts | 323° |
| 2026-04-23 11:20 | 36.14665 | -121.04006 | 8614 ft | 119 kts | 323° |
| 2026-04-23 11:20 | 36.15307 | -121.04654 | 8614 ft | 119 kts | 323° |
| 2026-04-23 11:20 | 36.15949 | -121.05302 | 8614 ft | 119 kts | 323° |
| 2026-04-23 11:21 | 36.16591 | -121.05949 | 8614 ft | 119 kts | 323° |
| 2026-04-23 11:21 | 36.17241 | -121.06606 | 8614 ft | 119 kts | 323° |
| 2026-04-23 11:21 | 36.17883 | -121.07254 | 8614 ft | 119 kts | 323° |
| 2026-04-23 11:21 | 36.18524 | -121.07902 | 8613 ft | 119 kts | 323° |
| 2026-04-23 11:22 | 36.19166 | -121.08550 | 8613 ft | 119 kts | 323° |
| 2026-04-23 11:22 | 36.19807 | -121.09198 | 8613 ft | 119 kts | 323° |
| 2026-04-23 11:22 | 36.20448 | -121.09847 | 8613 ft | 119 kts | 323° |
| 2026-04-23 11:22 | 36.21091 | -121.10497 | 8612 ft | 120 kts | 323° |
| 2026-04-23 11:23 | 36.21735 | -121.11148 | 8612 ft | 120 kts | 323° |
| 2026-04-23 11:23 | 36.22381 | -121.11801 | 8613 ft | 120 kts | 323° |
| 2026-04-23 11:23 | 36.23026 | -121.12454 | 8613 ft | 120 kts | 323° |
| 2026-04-23 11:23 | 36.23671 | -121.13107 | 8612 ft | 120 kts | 323° |
| 2026-04-23 11:24 | 36.24317 | -121.13761 | 8612 ft | 120 kts | 323° |
| 2026-04-23 11:24 | 36.24963 | -121.14415 | 8612 ft | 120 kts | 323° |
| 2026-04-23 11:24 | 36.25609 | -121.15069 | 8612 ft | 120 kts | 323° |
| 2026-04-23 11:24 | 36.26263 | -121.15732 | 8612 ft | 120 kts | 323° |
| 2026-04-23 11:25 | 36.26910 | -121.16386 | 8612 ft | 120 kts | 323° |
| 2026-04-23 11:25 | 36.27556 | -121.17041 | 8612 ft | 120 kts | 323° |
| 2026-04-23 11:25 | 36.28201 | -121.17695 | 8612 ft | 120 kts | 323° |
| 2026-04-23 11:25 | 36.28847 | -121.18350 | 8612 ft | 120 kts | 323° |
| 2026-04-23 11:26 | 36.29494 | -121.19006 | 8612 ft | 120 kts | 323° |
| 2026-04-23 11:26 | 36.30139 | -121.19660 | 8612 ft | 120 kts | 323° |
| 2026-04-23 11:26 | 36.30785 | -121.20315 | 8612 ft | 120 kts | 323° |
| 2026-04-23 11:26 | 36.31431 | -121.20970 | 8612 ft | 120 kts | 323° |
| 2026-04-23 11:27 | 36.32077 | -121.21626 | 8612 ft | 120 kts | 323° |
| 2026-04-23 11:27 | 36.32723 | -121.22281 | 8612 ft | 120 kts | 323° |
| 2026-04-23 11:27 | 36.33369 | -121.22937 | 8612 ft | 120 kts | 323° |
| 2026-04-23 11:27 | 36.34015 | -121.23593 | 8611 ft | 120 kts | 323° |
| 2026-04-23 11:28 | 36.34671 | -121.24258 | 8611 ft | 120 kts | 323° |
| 2026-04-23 11:28 | 36.35316 | -121.24913 | 8611 ft | 120 kts | 323° |
| 2026-04-23 11:28 | 36.35963 | -121.25570 | 8611 ft | 120 kts | 323° |
| 2026-04-23 11:28 | 36.36608 | -121.26225 | 8611 ft | 120 kts | 323° |
| 2026-04-23 11:29 | 36.37255 | -121.26882 | 8611 ft | 120 kts | 323° |
| 2026-04-23 11:29 | 36.37902 | -121.27539 | 8611 ft | 120 kts | 323° |
| 2026-04-23 11:29 | 36.38548 | -121.28195 | 8611 ft | 120 kts | 323° |
| 2026-04-23 11:29 | 36.39194 | -121.28851 | 8611 ft | 120 kts | 323° |
| 2026-04-23 11:30 | 36.39842 | -121.29507 | 8611 ft | 120 kts | 323° |
| 2026-04-23 11:30 | 36.40488 | -121.30161 | 8611 ft | 120 kts | 323° |
| 2026-04-23 11:30 | 36.41137 | -121.30816 | 8611 ft | 120 kts | 323° |
| 2026-04-23 11:30 | 36.41792 | -121.31458 | 8611 ft | 120 kts | 325° |
| 2026-04-23 11:31 | 36.42461 | -121.32076 | 8611 ft | 120 kts | 326° |
| 2026-04-23 11:31 | 36.43144 | -121.32692 | 8611 ft | 120 kts | 326° |
| 2026-04-23 11:31 | 36.43822 | -121.33296 | 8611 ft | 120 kts | 326° |
| 2026-04-23 11:31 | 36.44500 | -121.33897 | 8611 ft | 120 kts | 327° |
| 2026-04-23 11:32 | 36.45179 | -121.34497 | 8611 ft | 120 kts | 327° |
| 2026-04-23 11:32 | 36.45859 | -121.35098 | 8611 ft | 120 kts | 327° |
| 2026-04-23 11:32 | 36.46538 | -121.35697 | 8611 ft | 120 kts | 327° |
| 2026-04-23 11:32 | 36.47219 | -121.36298 | 8611 ft | 120 kts | 327° |
| 2026-04-23 11:33 | 36.47897 | -121.36896 | 8611 ft | 120 kts | 327° |
| 2026-04-23 11:33 | 36.48577 | -121.37497 | 8611 ft | 120 kts | 327° |
| 2026-04-23 11:33 | 36.49257 | -121.38096 | 8611 ft | 120 kts | 327° |
| 2026-04-23 11:33 | 36.49938 | -121.38697 | 8611 ft | 120 kts | 327° |
| 2026-04-23 11:34 | 36.50617 | -121.39297 | 8611 ft | 120 kts | 327° |
| 2026-04-23 11:34 | 36.51297 | -121.39898 | 8611 ft | 120 kts | 327° |
| 2026-04-23 11:34 | 36.51985 | -121.40506 | 8611 ft | 120 kts | 327° |
| 2026-04-23 11:34 | 36.52666 | -121.41108 | 8611 ft | 120 kts | 327° |
| 2026-04-23 11:35 | 36.53116 | -121.41505 | 8612 ft | 120 kts | 327° |
| 2026-04-23 11:35 | 36.54024 | -121.42308 | 8615 ft | 120 kts | 327° |
| 2026-04-23 11:35 | 36.54701 | -121.42907 | 8617 ft | 120 kts | 327° |
| 2026-04-23 11:35 | 36.55380 | -121.43507 | 8617 ft | 120 kts | 327° |
| 2026-04-23 11:36 | 36.55830 | -121.43905 | 8617 ft | 120 kts | 327° |
| 2026-04-23 11:36 | 36.56739 | -121.44710 | 8617 ft | 120 kts | 327° |
| 2026-04-23 11:36 | 36.57419 | -121.45311 | 8617 ft | 120 kts | 327° |
| 2026-04-23 11:36 | 36.58098 | -121.45912 | 8617 ft | 120 kts | 327° |
| 2026-04-23 11:37 | 36.58778 | -121.46514 | 8616 ft | 120 kts | 327° |
| 2026-04-23 11:37 | 36.59238 | -121.46921 | 8616 ft | 120 kts | 327° |
| 2026-04-23 11:37 | 36.60140 | -121.47720 | 8616 ft | 120 kts | 327° |
| 2026-04-23 11:37 | 36.60599 | -121.48127 | 8615 ft | 120 kts | 327° |
| 2026-04-23 11:38 | 36.61278 | -121.48729 | 8615 ft | 120 kts | 327° |
| 2026-04-23 11:38 | 36.61959 | -121.49332 | 8615 ft | 120 kts | 327° |
| 2026-04-23 11:38 | 36.62638 | -121.49934 | 8615 ft | 120 kts | 327° |
| 2026-04-23 11:38 | 36.63318 | -121.50537 | 8615 ft | 120 kts | 327° |
| 2026-04-23 11:39 | 36.63999 | -121.51141 | 8614 ft | 120 kts | 327° |
| 2026-04-23 11:39 | 36.64679 | -121.51744 | 8614 ft | 120 kts | 327° |
| 2026-04-23 11:39 | 36.65359 | -121.52347 | 8614 ft | 120 kts | 327° |
| 2026-04-23 11:39 | 36.66040 | -121.52951 | 8614 ft | 120 kts | 327° |
| 2026-04-23 11:40 | 36.66729 | -121.53563 | 8614 ft | 120 kts | 327° |
| 2026-04-23 11:40 | 36.67408 | -121.54166 | 8614 ft | 120 kts | 327° |
| 2026-04-23 11:40 | 36.68088 | -121.54769 | 8614 ft | 120 kts | 327° |
| 2026-04-23 11:40 | 36.68769 | -121.55374 | 8614 ft | 120 kts | 327° |
| 2026-04-23 11:41 | 36.69449 | -121.55977 | 8614 ft | 120 kts | 327° |
| 2026-04-23 11:41 | 36.70130 | -121.56582 | 8614 ft | 120 kts | 327° |
| 2026-04-23 11:41 | 36.70811 | -121.57187 | 8614 ft | 120 kts | 327° |
| 2026-04-23 11:41 | 36.71490 | -121.57791 | 8614 ft | 120 kts | 327° |
| 2026-04-23 11:42 | 36.72171 | -121.58396 | 8614 ft | 120 kts | 327° |
| 2026-04-23 11:42 | 36.72851 | -121.59000 | 8614 ft | 120 kts | 327° |
| 2026-04-23 11:42 | 36.73530 | -121.59604 | 8614 ft | 120 kts | 327° |
| 2026-04-23 11:42 | 36.74211 | -121.60208 | 8615 ft | 120 kts | 327° |
| 2026-04-23 11:43 | 36.74892 | -121.60814 | 8615 ft | 120 kts | 327° |
| 2026-04-23 11:43 | 36.75581 | -121.61426 | 8616 ft | 120 kts | 327° |
| 2026-04-23 11:43 | 36.76261 | -121.62030 | 8616 ft | 120 kts | 327° |
| 2026-04-23 11:43 | 36.76940 | -121.62633 | 8617 ft | 120 kts | 327° |
| 2026-04-23 11:44 | 36.77621 | -121.63237 | 8617 ft | 120 kts | 327° |
| 2026-04-23 11:44 | 36.78302 | -121.63839 | 8617 ft | 120 kts | 327° |
| 2026-04-23 11:44 | 36.78984 | -121.64440 | 8618 ft | 120 kts | 327° |
| 2026-04-23 11:44 | 36.79732 | -121.64856 | 8611 ft | 119 kts | 356° |
| 2026-04-23 11:45 | 36.80489 | -121.64506 | 8611 ft | 121 kts | 39° |
| 2026-04-23 11:45 | 36.81067 | -121.63749 | 8621 ft | 121 kts | 44° |
| 2026-04-23 11:45 | 36.81656 | -121.63007 | 8623 ft | 120 kts | 41° |
| 2026-04-23 11:45 | 36.82272 | -121.62302 | 8623 ft | 121 kts | 39° |
| 2026-04-23 11:46 | 36.82904 | -121.61614 | 8623 ft | 121 kts | 38° |
| 2026-04-23 11:46 | 36.83552 | -121.60927 | 8606 ft | 122 kts | 38° |
| 2026-04-23 11:46 | 36.84212 | -121.60234 | 8545 ft | 126 kts | 38° |
| 2026-04-23 11:46 | 36.84883 | -121.59533 | 8515 ft | 126 kts | 38° |
| 2026-04-23 11:47 | 36.85550 | -121.58834 | 8507 ft | 125 kts | 38° |
| 2026-04-23 11:47 | 36.86210 | -121.58141 | 8505 ft | 123 kts | 38° |
| 2026-04-23 11:47 | 36.86863 | -121.57454 | 8504 ft | 123 kts | 38° |
| 2026-04-23 11:47 | 36.87510 | -121.56769 | 8505 ft | 122 kts | 38° |
| 2026-04-23 11:48 | 36.88235 | -121.56274 | 8497 ft | 120 kts | 8° |
| 2026-04-23 11:48 | 36.89064 | -121.56322 | 8504 ft | 119 kts | 353° |
| 2026-04-23 11:48 | 36.89882 | -121.56465 | 8507 ft | 119 kts | 352° |
| 2026-04-23 11:48 | 36.90703 | -121.56609 | 8507 ft | 119 kts | 353° |
| 2026-04-23 11:49 | 36.91523 | -121.56749 | 8506 ft | 119 kts | 353° |
| 2026-04-23 11:49 | 36.92346 | -121.56887 | 8506 ft | 119 kts | 353° |
| 2026-04-23 11:49 | 36.93167 | -121.57024 | 8506 ft | 119 kts | 353° |
| 2026-04-23 11:49 | 36.93999 | -121.57162 | 8507 ft | 119 kts | 353° |
| 2026-04-23 11:50 | 36.94820 | -121.57298 | 8507 ft | 119 kts | 353° |
| 2026-04-23 11:50 | 36.95642 | -121.57434 | 8507 ft | 119 kts | 353° |
| 2026-04-23 11:50 | 36.96465 | -121.57570 | 8507 ft | 119 kts | 353° |
| 2026-04-23 11:50 | 36.97287 | -121.57706 | 8506 ft | 119 kts | 353° |
| 2026-04-23 11:51 | 36.98108 | -121.57841 | 8506 ft | 119 kts | 353° |
| 2026-04-23 11:51 | 36.98931 | -121.57976 | 8506 ft | 119 kts | 353° |
| 2026-04-23 11:51 | 36.99752 | -121.58110 | 8506 ft | 119 kts | 353° |
| 2026-04-23 11:51 | 37.00576 | -121.58242 | 8506 ft | 119 kts | 353° |
| 2026-04-23 11:52 | 37.01395 | -121.58394 | 8504 ft | 120 kts | 347° |
| 2026-04-23 11:52 | 37.02159 | -121.58807 | 8504 ft | 120 kts | 334° |
| 2026-04-23 11:52 | 37.02893 | -121.59307 | 8505 ft | 120 kts | 333° |
| 2026-04-23 11:52 | 37.03621 | -121.59823 | 8504 ft | 120 kts | 332° |
| 2026-04-23 11:53 | 37.04356 | -121.60349 | 8504 ft | 120 kts | 332° |
| 2026-04-23 11:53 | 37.05082 | -121.60869 | 8504 ft | 120 kts | 332° |
| 2026-04-23 11:53 | 37.05807 | -121.61390 | 8503 ft | 120 kts | 332° |
| 2026-04-23 11:53 | 37.06533 | -121.61912 | 8503 ft | 120 kts | 332° |
| 2026-04-23 11:54 | 37.07259 | -121.62435 | 8503 ft | 120 kts | 332° |
| 2026-04-23 11:54 | 37.07985 | -121.62958 | 8503 ft | 120 kts | 332° |
| 2026-04-23 11:54 | 37.08711 | -121.63479 | 8503 ft | 120 kts | 332° |
| 2026-04-23 11:54 | 37.09435 | -121.64000 | 8502 ft | 120 kts | 332° |
| 2026-04-23 11:55 | 37.10165 | -121.64525 | 8502 ft | 120 kts | 332° |
| 2026-04-23 11:55 | 37.10890 | -121.65046 | 8502 ft | 120 kts | 332° |
| 2026-04-23 11:55 | 37.11616 | -121.65567 | 8501 ft | 120 kts | 332° |
| 2026-04-23 11:55 | 37.12344 | -121.66087 | 8501 ft | 120 kts | 332° |
| 2026-04-23 11:56 | 37.13074 | -121.66604 | 8501 ft | 120 kts | 333° |
| 2026-04-23 11:56 | 37.13807 | -121.67107 | 8501 ft | 120 kts | 334° |
| 2026-04-23 11:56 | 37.14547 | -121.67595 | 8500 ft | 120 kts | 334° |
| 2026-04-23 11:56 | 37.15290 | -121.68075 | 8500 ft | 120 kts | 335° |
| 2026-04-23 11:57 | 37.16034 | -121.68553 | 8500 ft | 120 kts | 335° |
| 2026-04-23 11:57 | 37.16780 | -121.69029 | 8499 ft | 120 kts | 335° |
| 2026-04-23 11:57 | 37.17525 | -121.69504 | 8499 ft | 120 kts | 335° |
| 2026-04-23 11:57 | 37.18281 | -121.69983 | 8443 ft | 122 kts | 335° |
| 2026-04-23 11:58 | 37.18992 | -121.70431 | 8367 ft | 109 kts | 335° |
| 2026-04-23 11:58 | 37.19496 | -121.71076 | 8274 ft | 106 kts | 294° |
| 2026-04-23 11:58 | 37.19521 | -121.71991 | 8193 ft | 105 kts | 270° |
| 2026-04-23 11:58 | 37.19473 | -121.72886 | 8112 ft | 102 kts | 271° |
| 2026-04-23 11:59 | 37.19449 | -121.73772 | 8029 ft | 100 kts | 273° |
| 2026-04-23 11:59 | 37.19439 | -121.74623 | 7949 ft | 98 kts | 274° |
| 2026-04-23 11:59 | 37.19435 | -121.75486 | 7870 ft | 98 kts | 274° |
| 2026-04-23 11:59 | 37.19434 | -121.76341 | 7822 ft | 100 kts | 274° |
| 2026-04-23 12:00 | 37.19433 | -121.77220 | 7784 ft | 102 kts | 274° |
| 2026-04-23 12:00 | 37.19432 | -121.78111 | 7744 ft | 103 kts | 274° |
| 2026-04-23 12:00 | 37.19431 | -121.79008 | 7702 ft | 103 kts | 274° |
| 2026-04-23 12:00 | 37.19430 | -121.79912 | 7660 ft | 104 kts | 274° |
| 2026-04-23 12:01 | 37.19429 | -121.80807 | 7611 ft | 102 kts | 274° |
| 2026-04-23 12:01 | 37.19429 | -121.81696 | 7561 ft | 102 kts | 274° |
| 2026-04-23 12:01 | 37.19429 | -121.82580 | 7510 ft | 101 kts | 274° |
| 2026-04-23 12:01 | 37.19429 | -121.83462 | 7458 ft | 101 kts | 275° |
| 2026-04-23 12:02 | 37.19428 | -121.84341 | 7407 ft | 101 kts | 275° |
| 2026-04-23 12:02 | 37.19428 | -121.85221 | 7357 ft | 101 kts | 275° |
| 2026-04-23 12:02 | 37.19428 | -121.86101 | 7307 ft | 101 kts | 275° |
| 2026-04-23 12:02 | 37.19427 | -121.86990 | 7257 ft | 101 kts | 275° |
| 2026-04-23 12:03 | 37.19427 | -121.87867 | 7207 ft | 101 kts | 275° |
| 2026-04-23 12:03 | 37.19426 | -121.88745 | 7157 ft | 101 kts | 275° |
| 2026-04-23 12:03 | 37.19425 | -121.89624 | 7107 ft | 101 kts | 275° |
| 2026-04-23 12:03 | 37.19424 | -121.90503 | 7058 ft | 101 kts | 275° |
| 2026-04-23 12:04 | 37.19424 | -121.91383 | 7024 ft | 102 kts | 275° |
| 2026-04-23 12:04 | 37.19424 | -121.92319 | 6982 ft | 111 kts | 274° |
| 2026-04-23 12:04 | 37.19422 | -121.93306 | 6947 ft | 116 kts | 274° |
| 2026-04-23 12:04 | 37.19419 | -121.94322 | 6906 ft | 116 kts | 274° |
| 2026-04-23 12:05 | 37.19417 | -121.95326 | 6842 ft | 114 kts | 275° |
| 2026-04-23 12:05 | 37.19417 | -121.96277 | 6785 ft | 105 kts | 275° |
| 2026-04-23 12:05 | 37.19420 | -121.97182 | 6722 ft | 101 kts | 275° |
| 2026-04-23 12:05 | 37.19426 | -121.98058 | 6660 ft | 100 kts | 275° |
| 2026-04-23 12:06 | 37.19636 | -121.98833 | 6597 ft | 94 kts | 317° |
| 2026-04-23 12:06 | 37.20157 | -121.99329 | 6567 ft | 96 kts | 327° |
| 2026-04-23 12:06 | 37.21267 | -122.00319 | 6514 ft | 99 kts | 327° |
| 2026-04-23 12:07 | 37.21823 | -122.00819 | 6502 ft | 97 kts | 327° |
| 2026-04-23 12:07 | 37.22355 | -122.01297 | 6498 ft | 92 kts | 327° |
| 2026-04-23 12:07 | 37.22863 | -122.01751 | 6492 ft | 88 kts | 327° |
| 2026-04-23 12:07 | 37.23353 | -122.02189 | 6488 ft | 85 kts | 327° |
| 2026-04-23 12:08 | 37.23834 | -122.02620 | 6494 ft | 87 kts | 326° |
| 2026-04-23 12:08 | 37.24338 | -122.03073 | 6501 ft | 91 kts | 326° |
| 2026-04-23 12:08 | 37.24861 | -122.03541 | 6506 ft | 93 kts | 327° |
| 2026-04-23 12:08 | 37.25403 | -122.03994 | 6506 ft | 94 kts | 331° |
| 2026-04-23 12:09 | 37.25983 | -122.04404 | 6509 ft | 95 kts | 333° |
| 2026-04-23 12:09 | 37.26577 | -122.04804 | 6508 ft | 98 kts | 334° |
| 2026-04-23 12:09 | 37.27180 | -122.05205 | 6506 ft | 98 kts | 334° |
| 2026-04-23 12:09 | 37.27782 | -122.05602 | 6504 ft | 98 kts | 334° |
| 2026-04-23 12:10 | 37.28386 | -122.05999 | 6508 ft | 99 kts | 334° |
| 2026-04-23 12:10 | 37.29007 | -122.06407 | 6503 ft | 102 kts | 334° |
| 2026-04-23 12:10 | 37.29643 | -122.06826 | 6501 ft | 104 kts | 334° |
| 2026-04-23 12:10 | 37.30288 | -122.07249 | 6502 ft | 105 kts | 334° |
| 2026-04-23 12:11 | 37.30937 | -122.07675 | 6492 ft | 104 kts | 334° |
| 2026-04-23 12:11 | 37.31564 | -122.08084 | 6425 ft | 102 kts | 334° |
| 2026-04-23 12:11 | 37.32194 | -122.08493 | 6322 ft | 103 kts | 334° |
| 2026-04-23 12:11 | 37.32800 | -122.08947 | 6212 ft | 102 kts | 320° |
| 2026-04-23 12:12 | 37.33247 | -122.09631 | 6102 ft | 101 kts | 310° |
| 2026-04-23 12:12 | 37.33653 | -122.10340 | 5992 ft | 98 kts | 309° |
| 2026-04-23 12:12 | 37.34041 | -122.11028 | 5882 ft | 96 kts | 309° |
| 2026-04-23 12:12 | 37.34423 | -122.11709 | 5773 ft | 95 kts | 309° |
| 2026-04-23 12:13 | 37.34801 | -122.12384 | 5672 ft | 96 kts | 308° |
| 2026-04-23 12:13 | 37.35191 | -122.13083 | 5571 ft | 99 kts | 308° |
| 2026-04-23 12:13 | 37.35589 | -122.13800 | 5476 ft | 101 kts | 308° |
| 2026-04-23 12:13 | 37.35992 | -122.14527 | 5381 ft | 102 kts | 308° |
| 2026-04-23 12:14 | 37.36398 | -122.15258 | 5285 ft | 102 kts | 308° |
| 2026-04-23 12:14 | 37.36804 | -122.15987 | 5188 ft | 101 kts | 308° |
| 2026-04-23 12:14 | 37.37206 | -122.16709 | 5089 ft | 101 kts | 308° |
| 2026-04-23 12:14 | 37.37605 | -122.17426 | 4988 ft | 100 kts | 308° |
| 2026-04-23 12:15 | 37.38002 | -122.18138 | 4882 ft | 99 kts | 308° |
| 2026-04-23 12:15 | 37.38392 | -122.18839 | 4775 ft | 95 kts | 308° |
| 2026-04-23 12:15 | 37.38768 | -122.19511 | 4667 ft | 93 kts | 308° |
| 2026-04-23 12:15 | 37.39138 | -122.20175 | 4560 ft | 93 kts | 308° |
| 2026-04-23 12:16 | 37.39498 | -122.20821 | 4508 ft | 87 kts | 308° |
| 2026-04-23 12:16 | 37.39827 | -122.21408 | 4500 ft | 79 kts | 308° |
| 2026-04-23 12:16 | 37.40128 | -122.21944 | 4502 ft | 71 kts | 308° |
| 2026-04-23 12:16 | 37.40422 | -122.22466 | 4521 ft | 78 kts | 307° |
| 2026-04-23 12:17 | 37.40751 | -122.23058 | 4495 ft | 90 kts | 308° |
| 2026-04-23 12:17 | 37.41144 | -122.23736 | 4370 ft | 99 kts | 312° |
| 2026-04-23 12:17 | 37.41626 | -122.24371 | 4255 ft | 102 kts | 317° |
| 2026-04-23 12:17 | 37.42140 | -122.24991 | 4133 ft | 103 kts | 319° |
| 2026-04-23 12:18 | 37.42654 | -122.25595 | 3992 ft | 99 kts | 319° |
| 2026-04-23 12:18 | 37.43145 | -122.26166 | 3852 ft | 94 kts | 320° |
| 2026-04-23 12:18 | 37.43618 | -122.26713 | 3712 ft | 91 kts | 320° |
| 2026-04-23 12:18 | 37.44081 | -122.27248 | 3572 ft | 90 kts | 320° |
| 2026-04-23 12:19 | 37.44504 | -122.27736 | 3450 ft | 90 kts | 320° |
| 2026-04-23 12:19 | 37.44969 | -122.28274 | 3320 ft | 92 kts | 320° |
| 2026-04-23 12:19 | 37.45424 | -122.28802 | 3191 ft | 89 kts | 320° |
| 2026-04-23 12:19 | 37.45869 | -122.29316 | 3054 ft | 86 kts | 320° |
| 2026-04-23 12:20 | 37.46298 | -122.29811 | 3014 ft | 82 kts | 320° |
| 2026-04-23 12:20 | 37.46702 | -122.30278 | 3006 ft | 77 kts | 320° |
| 2026-04-23 12:20 | 37.47086 | -122.30721 | 3001 ft | 73 kts | 319° |
| 2026-04-23 12:20 | 37.47457 | -122.31149 | 3001 ft | 70 kts | 319° |
| 2026-04-23 12:21 | 37.47809 | -122.31556 | 3000 ft | 67 kts | 319° |
| 2026-04-23 12:21 | 37.48172 | -122.31977 | 3019 ft | 77 kts | 318° |
| 2026-04-23 12:21 | 37.48591 | -122.32466 | 3026 ft | 85 kts | 319° |
| 2026-04-23 12:21 | 37.49038 | -122.32988 | 2914 ft | 90 kts | 319° |
| 2026-04-23 12:22 | 37.49515 | -122.33542 | 2766 ft | 94 kts | 319° |
| 2026-04-23 12:22 | 37.49987 | -122.34090 | 2612 ft | 92 kts | 320° |
| 2026-04-23 12:22 | 37.50461 | -122.34633 | 2458 ft | 92 kts | 320° |
| 2026-04-23 12:22 | 37.50964 | -122.35135 | 2303 ft | 92 kts | 332° |
| 2026-04-23 12:23 | 37.51537 | -122.35457 | 2145 ft | 90 kts | 339° |
| 2026-04-23 12:23 | 37.52119 | -122.35737 | 1989 ft | 90 kts | 340° |
| 2026-04-23 12:23 | 37.52706 | -122.36011 | 1835 ft | 90 kts | 341° |
| 2026-04-23 12:23 | 37.53289 | -122.36279 | 1816 ft | 88 kts | 340° |
| 2026-04-23 12:24 | 37.53853 | -122.36468 | 1794 ft | 82 kts | 0° |
| 2026-04-23 12:24 | 37.54358 | -122.36192 | 1795 ft | 78 kts | 25° |
| 2026-04-23 12:24 | 37.54824 | -122.35860 | 1792 ft | 75 kts | 26° |
| 2026-04-23 12:24 | 37.55269 | -122.35540 | 1792 ft | 73 kts | 25° |
| 2026-04-23 12:25 | 37.55704 | -122.35238 | 1737 ft | 74 kts | 22° |
| 2026-04-23 12:25 | 37.56182 | -122.34955 | 1650 ft | 77 kts | 21° |
| 2026-04-23 12:25 | 37.56679 | -122.34678 | 1526 ft | 78 kts | 21° |
| 2026-04-23 12:25 | 37.57183 | -122.34391 | 1384 ft | 81 kts | 20° |
| 2026-04-23 12:26 | 37.57708 | -122.34144 | 1249 ft | 81 kts | 17° |
| 2026-04-23 12:26 | 37.58233 | -122.33894 | 1113 ft | 81 kts | 19° |
| 2026-04-23 12:26 | 37.58761 | -122.33655 | 971 ft | 80 kts | 16° |
| 2026-04-23 12:26 | 37.59260 | -122.33410 | 904 ft | 72 kts | 20° |
| 2026-04-23 12:27 | 37.59751 | -122.33383 | 801 ft | 79 kts | 340° |
| 2026-04-23 12:27 | 37.60258 | -122.33648 | 729 ft | 77 kts | 330° |
| 2026-04-23 12:27 | 37.60636 | -122.34110 | 583 ft | 77 kts | 309° |
| 2026-04-23 12:27 | 37.60924 | -122.34677 | 439 ft | 77 kts | 300° |
| 2026-04-23 12:28 | 37.61089 | -122.35079 | 328 ft | 77 kts | 298° |
| 2026-04-23 12:28 | 37.61340 | -122.35674 | 144 ft | 78 kts | 299° |
| 2026-04-23 12:28 | 37.61589 | -122.36265 | 26 ft | 71 kts | 298° |
| 2026-04-23 12:28 | 37.61847 | -122.36881 | 17 ft | 49 kts | 298° |
| 2026-04-23 12:29 | 37.61982 | -122.37209 | 17 ft | 36 kts | 298° |
| 2026-04-23 12:29 | 37.62090 | -122.37464 | 17 ft | 23 kts | 297° |
| 2026-04-23 12:29 | 37.62142 | -122.37591 | 17 ft | 12 kts | 298° |
| 2026-04-23 12:29 | 37.62174 | -122.37625 | 17 ft | 8 kts | 5° |
| 2026-04-23 12:30 | 37.62228 | -122.37558 | 17 ft | 9 kts | 47° |
| 2026-04-23 12:30 | 37.62278 | -122.37546 | 17 ft | 8 kts | 304° |
| 2026-04-23 12:30 | 37.62314 | -122.37633 | 17 ft | 12 kts | 297° |
| 2026-04-23 12:30 | 37.62342 | -122.37700 | 17 ft | 13 kts | 297° |
| 2026-04-23 12:31 | 37.62386 | -122.37804 | 17 ft | 14 kts | 297° |
| 2026-04-23 12:31 | 37.62450 | -122.37958 | 17 ft | 16 kts | 299° |
| 2026-04-23 12:31 | 37.62487 | -122.38045 | 17 ft | 18 kts | 298° |
| 2026-04-23 12:31 | 37.62546 | -122.38188 | 17 ft | 19 kts | 297° |
| 2026-04-23 12:32 | 37.62604 | -122.38328 | 17 ft | 16 kts | 298° |
| 2026-04-23 12:32 | 37.62649 | -122.38434 | 17 ft | 9 kts | 298° |
| 2026-04-23 12:32 | 37.62683 | -122.38464 | 17 ft | 7 kts | 24° |
| 2026-04-23 12:32 | 37.62729 | -122.38436 | 17 ft | 7 kts | 26° |
| 2026-04-23 12:33 | 37.62772 | -122.38410 | 17 ft | 6 kts | 22° |
| 2026-04-23 12:33 | 37.62804 | -122.38425 | 17 ft | 4 kts | 320° |
| 2026-04-23 12:33 | 37.62807 | -122.38436 | 17 ft | 0 kts | 232° |